createdAt,value
2018-05-24T00:02:01.868Z,17.10
2018-05-24T00:04:30.103Z,17.00
2018-05-24T00:06:57.579Z,17.00
2018-05-24T00:09:25.005Z,17.00
2018-05-24T00:11:52.426Z,17.00
2018-05-24T00:14:19.867Z,17.00
2018-05-24T00:16:47.301Z,16.90
2018-05-24T00:19:14.731Z,16.90
2018-05-24T00:21:42.165Z,16.90
2018-05-24T00:24:09.608Z,16.90
2018-05-24T00:26:37.805Z,16.90
2018-05-24T00:29:06.014Z,16.90
2018-05-24T00:31:33.500Z,16.90
2018-05-24T00:34:00.905Z,16.90
2018-05-24T00:36:28.345Z,16.90
2018-05-24T00:38:55.761Z,16.90
2018-05-24T00:41:23.972Z,16.90
2018-05-24T00:43:52.150Z,16.90
2018-05-24T00:46:19.585Z,16.90
2018-05-24T00:48:47.040Z,16.90
2018-05-24T00:51:14.455Z,16.90
2018-05-24T00:53:41.884Z,16.90
2018-05-24T00:56:09.343Z,16.90
2018-05-24T00:58:36.755Z,16.90
2018-05-24T01:01:04.976Z,17.00
2018-05-24T01:03:32.409Z,16.90
2018-05-24T01:06:00.599Z,16.90
2018-05-24T01:08:28.799Z,16.90
2018-05-24T01:10:56.235Z,16.90
2018-05-24T01:13:23.668Z,16.80
2018-05-24T01:15:51.137Z,16.80
2018-05-24T01:18:18.538Z,16.80
2018-05-24T01:20:45.965Z,16.80
2018-05-24T01:23:13.422Z,16.80
2018-05-24T01:25:40.891Z,16.80
2018-05-24T01:28:08.320Z,16.80
2018-05-24T01:30:35.764Z,16.80
2018-05-24T01:33:03.209Z,16.80
2018-05-24T01:35:30.628Z,16.70
2018-05-24T01:37:58.064Z,16.80
2018-05-24T01:40:25.496Z,16.80
2018-05-24T01:42:52.921Z,16.80
2018-05-24T01:45:20.355Z,16.90
2018-05-24T01:47:47.828Z,16.90
2018-05-24T01:50:15.272Z,16.90
2018-05-24T01:52:42.719Z,17.00
2018-05-24T01:55:10.154Z,17.00
2018-05-24T01:57:37.594Z,17.10
2018-05-24T02:00:05.212Z,17.10
2018-05-24T02:02:32.642Z,17.10
2018-05-24T02:05:00.083Z,17.10
2018-05-24T02:07:27.517Z,17.10
2018-05-24T02:09:55.716Z,17.10
2018-05-24T02:12:23.942Z,17.20
2018-05-24T02:14:51.364Z,17.20
2018-05-24T02:17:19.569Z,17.20
2018-05-24T02:19:46.987Z,17.10
2018-05-24T02:22:14.426Z,17.20
2018-05-24T02:24:41.845Z,17.20
2018-05-24T02:27:09.274Z,17.20
2018-05-24T02:29:37.844Z,17.20
2018-05-24T02:32:05.270Z,17.20
2018-05-24T02:34:32.698Z,17.20
2018-05-24T02:37:00.124Z,17.20
2018-05-24T02:39:27.569Z,17.20
2018-05-24T02:41:55.004Z,17.20
2018-05-24T02:44:22.436Z,17.20
2018-05-24T02:46:49.861Z,17.20
2018-05-24T02:49:17.307Z,17.20
2018-05-24T02:51:44.748Z,17.20
2018-05-24T02:54:12.936Z,17.20
2018-05-24T02:56:41.183Z,17.20
2018-05-24T02:59:08.605Z,17.20
2018-05-24T03:01:36.917Z,17.10
2018-05-24T03:04:04.282Z,17.00
2018-05-24T03:06:31.739Z,17.10
2018-05-24T03:08:59.160Z,17.00
2018-05-24T03:11:26.591Z,17.00
2018-05-24T03:13:54.032Z,17.00
2018-05-24T03:16:22.219Z,16.90
2018-05-24T03:18:50.417Z,16.90
2018-05-24T03:21:17.932Z,16.90
2018-05-24T03:23:45.359Z,16.90
2018-05-24T03:26:12.787Z,16.90
2018-05-24T03:28:40.226Z,16.90
2018-05-24T03:31:07.684Z,16.90
2018-05-24T03:33:35.089Z,16.90
2018-05-24T03:36:02.543Z,16.90
2018-05-24T03:38:29.978Z,16.80
2018-05-24T03:40:57.454Z,16.80
2018-05-24T03:43:24.866Z,16.80
2018-05-24T03:45:52.286Z,16.90
2018-05-24T03:48:20.298Z,16.80
2018-05-24T03:50:47.722Z,16.90
2018-05-24T03:53:15.925Z,16.80
2018-05-24T03:55:43.336Z,16.90
2018-05-24T03:58:10.752Z,16.90
2018-05-24T04:00:50.286Z,16.90
2018-05-24T04:03:30.318Z,16.90
2018-05-24T04:05:57.741Z,16.80
2018-05-24T04:08:25.180Z,16.90
2018-05-24T04:10:52.610Z,16.80
2018-05-24T04:13:22.736Z,16.80
2018-05-24T04:15:50.174Z,16.80
2018-05-24T04:18:18.362Z,16.80
2018-05-24T04:20:45.792Z,16.80
2018-05-24T04:23:14.045Z,16.80
2018-05-24T04:25:42.201Z,16.70
2018-05-24T04:28:09.641Z,16.60
2018-05-24T04:30:37.837Z,16.60
2018-05-24T04:33:05.301Z,16.60
2018-05-24T04:35:32.734Z,16.60
2018-05-24T04:38:00.181Z,16.60
2018-05-24T04:40:27.648Z,16.50
2018-05-24T04:42:55.073Z,16.50
2018-05-24T04:45:22.572Z,16.50
2018-05-24T04:47:49.932Z,16.50
2018-05-24T04:50:17.384Z,16.50
2018-05-24T04:52:45.590Z,16.50
2018-05-24T04:55:13.780Z,16.40
2018-05-24T04:57:41.212Z,16.40
2018-05-24T05:00:08.639Z,16.50
2018-05-24T05:02:36.081Z,16.50
2018-05-24T05:05:04.276Z,16.40
2018-05-24T05:07:31.724Z,16.40
2018-05-24T05:09:59.163Z,16.40
2018-05-24T05:12:26.618Z,16.40
2018-05-24T05:14:54.032Z,16.40
2018-05-24T05:17:22.241Z,16.40
2018-05-24T05:19:50.441Z,16.40
2018-05-24T05:22:17.883Z,16.40
2018-05-24T05:24:45.297Z,16.40
2018-05-24T05:27:12.720Z,16.30
2018-05-24T05:29:40.938Z,16.30
2018-05-24T05:32:08.354Z,16.20
2018-05-24T05:34:35.788Z,16.20
2018-05-24T05:37:03.235Z,16.20
2018-05-24T05:39:31.468Z,16.20
2018-05-24T05:41:58.890Z,16.20
2018-05-24T05:44:26.316Z,16.20
2018-05-24T05:46:53.754Z,16.20
2018-05-24T05:49:21.176Z,16.20
2018-05-24T05:51:49.383Z,16.30
2018-05-24T05:54:17.631Z,16.30
2018-05-24T05:56:45.009Z,16.20
2018-05-24T05:59:12.424Z,16.20
2018-05-24T06:01:39.956Z,16.20
2018-05-24T06:04:07.314Z,16.20
2018-05-24T06:06:34.734Z,16.20
2018-05-24T06:09:02.168Z,16.20
2018-05-24T06:11:29.609Z,16.30
2018-05-24T06:13:57.067Z,16.40
2018-05-24T06:16:24.487Z,16.40
2018-05-24T06:18:52.680Z,16.40
2018-05-24T06:21:20.181Z,16.40
2018-05-24T06:23:47.616Z,16.40
2018-05-24T06:26:15.066Z,16.50
2018-05-24T06:28:43.258Z,16.50
2018-05-24T06:31:11.460Z,16.50
2018-05-24T06:33:39.639Z,16.50
2018-05-24T06:36:07.839Z,16.50
2018-05-24T06:38:36.015Z,16.50
2018-05-24T06:41:04.212Z,16.50
2018-05-24T06:43:31.639Z,16.50
2018-05-24T06:45:59.071Z,16.50
2018-05-24T06:48:26.503Z,16.50
2018-05-24T06:50:54.725Z,16.60
2018-05-24T06:53:22.141Z,16.60
2018-05-24T06:55:50.340Z,16.60
2018-05-24T06:58:18.168Z,16.70
2018-05-24T07:00:45.589Z,16.70
2018-05-24T07:03:13.023Z,16.70
2018-05-24T07:05:40.436Z,16.70
2018-05-24T07:08:08.646Z,16.90
2018-05-24T07:10:36.837Z,17.00
2018-05-24T07:13:04.260Z,17.00
2018-05-24T07:15:31.701Z,17.20
2018-05-24T07:17:59.117Z,17.30
2018-05-24T07:20:27.316Z,17.40
2018-05-24T07:22:54.755Z,17.40
2018-05-24T07:25:22.973Z,17.50
2018-05-24T07:27:51.145Z,17.60
2018-05-24T07:30:19.332Z,17.70
2018-05-24T07:32:46.781Z,17.70
2018-05-24T07:35:14.220Z,17.90
2018-05-24T07:37:41.684Z,18.00
2018-05-24T07:40:09.099Z,18.10
2018-05-24T07:42:36.517Z,18.10
2018-05-24T07:45:03.958Z,18.00
2018-05-24T07:47:31.448Z,18.10
2018-05-24T07:49:58.874Z,18.20
2018-05-24T07:52:26.316Z,18.20
2018-05-24T07:54:53.829Z,18.10
2018-05-24T07:57:21.192Z,18.10
2018-05-24T07:59:49.409Z,18.20
2018-05-24T08:02:16.871Z,18.10
2018-05-24T08:04:45.029Z,18.20
2018-05-24T08:07:13.232Z,18.20
2018-05-24T08:09:41.424Z,18.30
2018-05-24T08:12:08.864Z,18.30
2018-05-24T08:14:36.330Z,18.30
2018-05-24T08:17:03.744Z,18.20
2018-05-24T08:19:31.179Z,18.20
2018-05-24T08:21:59.362Z,18.20
2018-05-24T08:24:26.794Z,18.20
2018-05-24T08:26:54.220Z,18.30
2018-05-24T08:29:21.730Z,18.30
2018-05-24T08:31:49.139Z,18.40
2018-05-24T08:34:16.600Z,18.40
2018-05-24T08:36:44.820Z,18.60
2018-05-24T08:39:12.297Z,18.60
2018-05-24T08:41:39.755Z,18.70
2018-05-24T08:44:07.132Z,18.60
2018-05-24T08:46:34.586Z,18.60
2018-05-24T08:49:02.775Z,18.80
2018-05-24T08:51:30.197Z,18.80
2018-05-24T08:53:57.617Z,19.00
2018-05-24T08:56:25.061Z,19.00
2018-05-24T08:58:53.264Z,19.00
2018-05-24T09:01:21.511Z,19.00
2018-05-24T09:03:48.914Z,19.00
2018-05-24T09:06:17.096Z,18.90
2018-05-24T09:08:45.281Z,18.80
2018-05-24T09:11:13.463Z,18.90
2018-05-24T09:13:40.904Z,18.80
2018-05-24T09:16:08.329Z,18.80
2018-05-24T09:18:35.759Z,18.40
2018-05-24T09:21:03.201Z,18.40
2018-05-24T09:23:30.612Z,18.40
2018-05-24T09:25:58.066Z,18.20
2018-05-24T09:28:26.261Z,18.20
2018-05-24T09:30:54.454Z,18.00
2018-05-24T09:33:21.892Z,18.00
2018-05-24T09:35:49.317Z,18.10
2018-05-24T09:38:16.750Z,18.30
2018-05-24T09:40:44.179Z,18.50
2018-05-24T09:43:11.617Z,18.60
2018-05-24T09:45:39.033Z,18.70
2018-05-24T09:48:06.477Z,18.90
2018-05-24T09:50:33.921Z,19.00
2018-05-24T09:53:02.081Z,19.00
2018-05-24T09:55:30.281Z,19.00
2018-05-24T09:57:57.754Z,19.00
2018-05-24T10:00:25.920Z,19.20
2018-05-24T10:02:54.110Z,19.40
2018-05-24T10:05:22.319Z,19.60
2018-05-24T10:07:49.754Z,19.60
2018-05-24T10:10:17.172Z,19.70
2018-05-24T10:12:44.623Z,19.80
2018-05-24T10:15:12.853Z,19.80
2018-05-24T10:17:40.281Z,19.80
2018-05-24T10:20:07.697Z,19.90
2018-05-24T10:22:35.121Z,20.00
2018-05-24T10:25:02.549Z,19.90
2018-05-24T10:27:29.989Z,20.00
2018-05-24T10:29:57.455Z,20.40
2018-05-24T10:32:24.872Z,20.40
2018-05-24T10:34:53.086Z,20.40
2018-05-24T10:37:20.504Z,20.40
2018-05-24T10:39:48.747Z,20.10
2018-05-24T10:42:16.172Z,20.10
2018-05-24T10:44:44.359Z,19.70
2018-05-24T10:47:12.628Z,19.60
2018-05-24T10:49:40.053Z,19.60
2018-05-24T10:52:07.501Z,19.50
2018-05-24T10:54:34.936Z,19.50
2018-05-24T10:57:02.370Z,19.60
2018-05-24T10:59:29.846Z,19.60
2018-05-24T11:01:57.238Z,19.70
2018-05-24T11:04:24.727Z,19.80
2018-05-24T11:06:52.158Z,19.90
2018-05-24T11:09:19.580Z,20.10
2018-05-24T11:11:47.132Z,20.20
2018-05-24T11:14:14.444Z,20.30
2018-05-24T11:16:41.853Z,20.40
2018-05-24T11:19:09.292Z,20.50
2018-05-24T11:21:36.724Z,20.50
2018-05-24T11:24:04.922Z,20.50
2018-05-24T11:26:32.358Z,20.40
2018-05-24T11:28:59.864Z,20.40
2018-05-24T11:31:27.320Z,20.50
2018-05-24T11:33:54.729Z,20.50
2018-05-24T11:36:22.161Z,20.50
2018-05-24T11:38:49.590Z,20.40
2018-05-24T11:41:17.018Z,20.30
2018-05-24T11:43:44.456Z,20.20
2018-05-24T11:46:12.641Z,20.20
2018-05-24T11:48:40.840Z,20.20
2018-05-24T11:51:08.296Z,20.20
2018-05-24T11:53:36.503Z,20.20
2018-05-24T11:56:04.667Z,20.30
2018-05-24T11:58:32.894Z,20.20
2018-05-24T12:01:00.349Z,20.20
2018-05-24T12:03:27.760Z,20.20
2018-05-24T12:05:55.185Z,20.10
2018-05-24T12:08:22.605Z,20.20
2018-05-24T12:10:50.040Z,20.10
2018-05-24T12:13:17.477Z,20.10
2018-05-24T12:15:44.897Z,20.10
2018-05-24T12:18:12.328Z,20.10
2018-05-24T12:20:39.756Z,20.10
2018-05-24T12:23:07.187Z,20.00
2018-05-24T12:25:34.609Z,20.10
2018-05-24T12:28:02.838Z,20.20
2018-05-24T12:30:30.269Z,20.20
2018-05-24T12:32:57.692Z,20.10
2018-05-24T12:35:25.209Z,20.40
2018-05-24T12:37:52.641Z,20.40
2018-05-24T12:40:20.089Z,20.40
2018-05-24T12:42:47.491Z,20.50
2018-05-24T12:45:14.931Z,20.50
2018-05-24T12:47:42.371Z,20.50
2018-05-24T12:50:09.773Z,20.60
2018-05-24T12:52:37.238Z,20.60
2018-05-24T12:55:04.649Z,20.70
2018-05-24T12:57:32.854Z,20.70
2018-05-24T13:00:01.053Z,20.80
2018-05-24T13:02:29.275Z,20.70
2018-05-24T13:04:56.709Z,20.70
2018-05-24T13:07:24.149Z,21.00
2018-05-24T13:09:51.582Z,21.10
2018-05-24T13:12:19.000Z,21.10
2018-05-24T13:14:47.196Z,21.00
2018-05-24T13:17:14.631Z,21.00
2018-05-24T13:19:42.068Z,21.00
2018-05-24T13:22:09.547Z,21.30
2018-05-24T13:24:37.049Z,21.90
2018-05-24T13:27:05.185Z,22.10
2018-05-24T13:29:32.592Z,21.90
2018-05-24T13:32:00.080Z,21.90
2018-05-24T13:34:27.535Z,22.00
2018-05-24T13:36:54.925Z,22.30
2018-05-24T13:39:22.358Z,22.50
2018-05-24T13:41:49.774Z,22.80
2018-05-24T13:44:17.257Z,22.40
2018-05-24T13:46:44.614Z,22.50
2018-05-24T13:49:12.040Z,22.70
2018-05-24T13:51:39.461Z,23.00
2018-05-24T13:54:06.874Z,23.00
2018-05-24T13:56:34.293Z,22.90
2018-05-24T13:59:01.705Z,23.20
2018-05-24T14:01:29.258Z,23.40
2018-05-24T14:03:56.586Z,23.80
2018-05-24T14:06:24.765Z,24.00
2018-05-24T14:08:52.959Z,23.10
2018-05-24T14:11:21.155Z,22.70
2018-05-24T14:13:48.577Z,22.70
2018-05-24T14:16:15.996Z,22.40
2018-05-24T14:18:43.432Z,22.40
2018-05-24T14:21:10.843Z,22.60
2018-05-24T14:23:38.280Z,22.50
2018-05-24T14:26:06.511Z,23.60
2018-05-24T14:28:34.085Z,23.60
2018-05-24T14:31:01.491Z,24.00
2018-05-24T14:33:28.934Z,23.40
2018-05-24T14:35:56.393Z,23.40
2018-05-24T14:38:23.831Z,23.10
2018-05-24T14:40:52.092Z,23.20
2018-05-24T14:43:19.510Z,23.20
2018-05-24T14:45:46.923Z,23.50
2018-05-24T14:48:14.391Z,23.80
2018-05-24T14:50:42.613Z,23.70
2018-05-24T14:53:10.860Z,23.70
2018-05-24T14:55:38.317Z,23.70
2018-05-24T14:58:05.717Z,23.90
2018-05-24T15:00:33.177Z,23.90
2018-05-24T15:03:00.595Z,24.20
2018-05-24T15:05:28.027Z,23.80
2018-05-24T15:07:55.454Z,23.80
2018-05-24T15:10:22.841Z,23.50
2018-05-24T15:12:50.268Z,23.50
2018-05-24T15:15:17.701Z,23.70
2018-05-24T15:17:45.129Z,24.00
2018-05-24T15:20:12.532Z,24.10
2018-05-24T15:22:39.949Z,23.70
2018-05-24T15:25:07.375Z,23.30
2018-05-24T15:27:36.303Z,22.70
2018-05-24T15:30:03.724Z,22.70
2018-05-24T15:32:31.142Z,22.50
2018-05-24T15:34:58.582Z,22.50
2018-05-24T15:37:26.760Z,22.50
2018-05-24T15:39:54.955Z,22.30
2018-05-24T15:42:23.141Z,22.10
2018-05-24T15:44:51.322Z,21.80
2018-05-24T15:47:19.516Z,22.00
2018-05-24T15:49:47.721Z,21.90
2018-05-24T15:52:15.900Z,21.60
2018-05-24T15:54:43.316Z,21.60
2018-05-24T15:57:10.750Z,21.70
2018-05-24T15:59:38.172Z,21.90
2018-05-24T16:02:05.611Z,21.80
2018-05-24T16:04:33.063Z,21.80
2018-05-24T16:07:00.477Z,21.80
2018-05-24T16:09:27.903Z,21.90
2018-05-24T16:11:55.333Z,21.70
2018-05-24T16:14:23.531Z,21.50
2018-05-24T16:16:51.829Z,21.50
2018-05-24T16:19:20.009Z,21.40
2018-05-24T16:21:48.212Z,21.40
2018-05-24T16:24:15.639Z,21.30
2018-05-24T16:26:43.059Z,21.50
2018-05-24T16:29:10.473Z,21.40
2018-05-24T16:31:38.671Z,21.40
2018-05-24T16:34:06.090Z,21.40
2018-05-24T16:36:33.502Z,21.50
2018-05-24T16:39:00.935Z,21.40
2018-05-24T16:41:28.367Z,21.60
2018-05-24T16:43:56.540Z,21.60
2018-05-24T16:46:24.737Z,21.40
2018-05-24T16:48:52.920Z,21.50
2018-05-24T16:51:21.119Z,21.80
2018-05-24T16:53:48.605Z,21.80
2018-05-24T16:56:16.032Z,21.90
2018-05-24T16:58:43.460Z,22.70
2018-05-24T17:01:10.910Z,22.60
2018-05-24T17:03:38.338Z,22.90
2018-05-24T17:06:06.513Z,23.00
2018-05-24T17:08:34.709Z,23.00
2018-05-24T17:11:02.903Z,23.10
2018-05-24T17:13:31.095Z,23.40
2018-05-24T17:15:58.540Z,23.40
2018-05-24T17:18:25.965Z,23.80
2018-05-24T17:20:53.397Z,24.00
2018-05-24T17:23:21.591Z,23.60
2018-05-24T17:25:49.048Z,23.60
2018-05-24T17:28:16.479Z,23.40
2018-05-24T17:30:43.906Z,22.90
2018-05-24T17:33:11.359Z,22.90
2018-05-24T17:35:38.787Z,22.40
2018-05-24T17:38:06.211Z,22.00
2018-05-24T17:40:33.643Z,22.10
2018-05-24T17:43:01.134Z,22.30
2018-05-24T17:45:30.053Z,22.20
2018-05-24T17:47:57.519Z,22.20
2018-05-24T17:50:25.728Z,22.20
2018-05-24T17:52:53.155Z,22.20
2018-05-24T17:55:21.366Z,22.70
2018-05-24T17:57:48.795Z,22.60
2018-05-24T18:00:16.982Z,23.40
2018-05-24T18:02:45.177Z,24.00
2018-05-24T18:05:13.364Z,23.90
2018-05-24T18:07:41.570Z,23.80
2018-05-24T18:10:09.025Z,23.70
2018-05-24T18:12:36.481Z,23.40
2018-05-24T18:15:03.897Z,23.40
2018-05-24T18:17:31.321Z,22.80
2018-05-24T18:19:58.754Z,22.70
2018-05-24T18:22:26.198Z,22.50
2018-05-24T18:24:53.627Z,22.40
2018-05-24T18:27:21.826Z,21.80
2018-05-24T18:29:49.288Z,21.80
2018-05-24T18:32:17.496Z,21.00
2018-05-24T18:34:44.958Z,20.60
2018-05-24T18:37:12.387Z,20.60
2018-05-24T18:39:40.585Z,20.20
2018-05-24T18:42:08.031Z,20.20
2018-05-24T18:44:35.440Z,20.00
2018-05-24T18:47:03.676Z,19.70
2018-05-24T18:49:31.120Z,19.70
2018-05-24T18:51:58.569Z,19.70
2018-05-24T18:54:25.985Z,19.60
2018-05-24T18:56:53.410Z,19.50
2018-05-24T18:59:21.608Z,19.30
2018-05-24T19:01:49.058Z,19.30
2018-05-24T19:04:17.277Z,19.10
2018-05-24T19:06:44.704Z,19.10
2018-05-24T19:09:13.679Z,19.00
2018-05-24T19:11:41.112Z,19.00
2018-05-24T19:14:08.545Z,19.00
2018-05-24T19:16:36.812Z,18.90
2018-05-24T19:19:04.225Z,18.90
2018-05-24T19:21:31.704Z,18.90
2018-05-24T19:23:59.157Z,18.80
2018-05-24T19:26:27.356Z,18.70
2018-05-24T19:28:54.785Z,18.70
2018-05-24T19:31:22.229Z,18.70
2018-05-24T19:33:49.654Z,18.60
2018-05-24T19:36:17.106Z,18.60
2018-05-24T19:38:44.535Z,18.50
2018-05-24T19:41:11.971Z,18.50
2018-05-24T19:43:39.405Z,18.50
2018-05-24T19:46:06.839Z,18.50
2018-05-24T19:48:34.670Z,18.40
2018-05-24T19:51:02.900Z,18.40
2018-05-24T19:53:30.332Z,18.40
2018-05-24T19:55:57.768Z,18.40
2018-05-24T19:58:25.219Z,18.40
2018-05-24T20:00:52.654Z,18.30
2018-05-24T20:03:20.130Z,18.30
2018-05-24T20:05:47.569Z,18.30
2018-05-24T20:08:15.876Z,18.20
2018-05-24T20:10:44.081Z,18.20
2018-05-24T20:13:11.557Z,18.20
2018-05-24T20:15:38.996Z,18.20
2018-05-24T20:18:07.188Z,18.20
2018-05-24T20:20:34.619Z,18.20
2018-05-24T20:23:02.853Z,18.20
2018-05-24T20:25:31.007Z,18.20
2018-05-24T20:27:59.230Z,18.20
2018-05-24T20:30:26.660Z,18.20
2018-05-24T20:32:54.935Z,18.20
2018-05-24T20:35:22.296Z,18.20
2018-05-24T20:37:49.724Z,18.20
2018-05-24T20:40:17.157Z,18.20
2018-05-24T20:42:45.362Z,18.10
2018-05-24T20:45:13.564Z,18.10
2018-05-24T20:47:40.994Z,18.10
2018-05-24T20:50:08.439Z,18.10
2018-05-24T20:52:35.917Z,18.10
2018-05-24T20:55:03.333Z,18.10
2018-05-24T20:57:30.764Z,18.10
2018-05-24T20:59:58.187Z,18.10
2018-05-24T21:02:25.655Z,18.10
2018-05-24T21:04:53.105Z,18.10
2018-05-24T21:07:21.427Z,18.00
2018-05-24T21:09:48.831Z,18.10
2018-05-24T21:12:16.249Z,18.10
2018-05-24T21:14:43.674Z,18.00
2018-05-24T21:17:11.201Z,18.00
2018-05-24T21:19:38.647Z,18.00
2018-05-24T21:22:06.069Z,18.00
2018-05-24T21:24:33.504Z,18.00
2018-05-24T21:27:00.940Z,17.90
2018-05-24T21:29:29.133Z,17.90
2018-05-24T21:31:56.563Z,17.90
2018-05-24T21:34:24.052Z,17.90
2018-05-24T21:36:51.494Z,17.90
2018-05-24T21:39:18.931Z,17.80
2018-05-24T21:41:46.375Z,17.80
2018-05-24T21:44:14.598Z,17.70
2018-05-24T21:46:42.040Z,17.70
2018-05-24T21:49:09.487Z,17.70
2018-05-24T21:51:36.912Z,17.70
2018-05-24T21:54:04.339Z,17.60
2018-05-24T21:56:32.537Z,17.50
2018-05-24T21:58:59.964Z,17.50
2018-05-24T22:01:27.437Z,17.40
2018-05-24T22:03:54.886Z,17.40
2018-05-24T22:06:22.349Z,17.40
2018-05-24T22:08:49.783Z,17.40
2018-05-24T22:11:17.992Z,17.40
2018-05-24T22:13:45.420Z,17.40
2018-05-24T22:16:12.889Z,17.40
2018-05-24T22:18:40.291Z,17.30
2018-05-24T22:21:07.728Z,17.40
2018-05-24T22:23:35.919Z,17.30
2018-05-24T22:26:04.133Z,17.30
2018-05-24T22:28:31.571Z,17.30
2018-05-24T22:30:59.775Z,17.30
2018-05-24T22:33:27.220Z,17.30
2018-05-24T22:35:55.427Z,17.20
2018-05-24T22:38:23.635Z,17.20
2018-05-24T22:40:51.075Z,17.20
2018-05-24T22:43:18.551Z,17.20
2018-05-24T22:45:46.796Z,17.20
2018-05-24T22:48:14.209Z,17.20
2018-05-24T22:50:42.416Z,17.10
2018-05-24T22:53:09.854Z,17.10
2018-05-24T22:55:37.273Z,17.10
2018-05-24T22:58:04.713Z,17.00
2018-05-24T23:00:32.260Z,17.00
2018-05-24T23:02:59.672Z,17.00
2018-05-24T23:05:27.107Z,17.00
2018-05-24T23:07:54.545Z,16.90
2018-05-24T23:10:21.990Z,16.90
2018-05-24T23:12:49.426Z,16.90
2018-05-24T23:15:16.866Z,16.90
2018-05-24T23:17:45.080Z,16.80
2018-05-24T23:20:12.556Z,16.80
2018-05-24T23:22:40.724Z,16.80
2018-05-24T23:25:08.167Z,16.80
2018-05-24T23:27:35.623Z,16.80
2018-05-24T23:30:03.081Z,16.70
2018-05-24T23:32:30.500Z,16.70
2018-05-24T23:34:57.932Z,16.60
2018-05-24T23:37:25.364Z,16.60
2018-05-24T23:39:52.815Z,16.60
2018-05-24T23:42:21.004Z,16.60
2018-05-24T23:44:48.441Z,16.60
2018-05-24T23:47:15.917Z,16.60
2018-05-24T23:49:43.361Z,16.60
2018-05-24T23:52:10.822Z,16.50
2018-05-24T23:54:38.265Z,16.40
2018-05-24T23:57:05.671Z,16.50
2018-05-24T23:59:33.104Z,16.50
